Kimberlin Heights, Tennessee
Current Conditions -  °F | °C
As of 1:53 PM on Thursday 27 Nov 2014 (Local Time) from KTYS Reporting Station
Overcast Overcast  
Wind Chill: 32°   Ceiling: 3400
Heat Index: 38°   Visibility: 10mi
Dew Point: 30°   Wind: 8mph
Humidity: 73%   Direction: 280°W
Pressure: 30.28"   Gusts: NA
Location:  35.9105°N, 83.8544°W
Report Text: KTYS 271853Z 28007KT 10SM SCT026 OVC034 03/M01 A3028 RMK AO2 SLP259 T00331011
Loading
Personal Weather Stations






























Interactive Weather Map New forecast layout! Learn more

10-Day Weather Forecast

Advertisements
Track Severe Weather on mobile